Terminal Aerodrome Forecast
Issued by NWS Louisville, KY

Home | Current Version | Previous Version | Text Only | Print | Product List | Glossary On
Versions: 1 2 3 4 5 6 7 8 9 10 11 12 13 14 15
847
FTUS43 KLMK 161732
TAFBWG
TAF
KBWG 161732Z 1618/1718 32008KT P6SM BKN035
     FM161900 32007KT P6SM SKC
     FM162100 31008KT P6SM SCT025
     FM170500 00000KT P6SM BKN030
     FM170900 00000KT P6SM SCT030=

USA.gov is the U.S. government's official web portal to all federal, state and local government web resources and services.